Time;durP1;ratioP1;P1;durP2;ratioP2;P2;SDS_P1;SDS_P2;PMS_P1;PMS_P2;Temp;Humidity;BMP_temperature;BMP_pressure;BME280_temperature;BME280_humidity;BME280_pressure;Samples;Min_cycle;Max_cycle;Signal;HPM_P1;HPM_P2
2022/11/04 00:00:06;;;;;;;2.70;1.50;;;;;;;;;;527797;27;1129;-57
2022/11/04 00:00:23;;;;;;;3.13;1.60;;;;;;;;;;520640;28;1580;-58
2022/11/04 00:00:38;;;;;;;2.92;1.50;;;;;;;;;;523900;28;1306;-58
2022/11/04 00:00:53;;;;;;;2.10;1.30;;;;;;;;;;521766;28;1424;-58
2022/11/04 00:01:09;;;;;;;1.47;1.20;;;;;;;;;;521574;28;1432;-58
2022/11/04 00:01:24;;;;;;;1.60;1.20;;;;;;;;;;521474;28;1141;-58
2022/11/04 00:01:42;;;;;;;2.15;1.30;;;;;;;;;;521533;28;1506;-57
2022/11/04 00:01:58;;;;;;;2.55;1.48;;;;;;;;;;522455;28;1482;-58
2022/11/04 00:02:13;;;;;;;2.05;1.40;;;;;;;;;;522361;28;1108;-57
2022/11/04 00:02:28;;;;;;;2.00;1.30;;;;;;;;;;521336;28;1136;-58
2022/11/04 00:02:43;;;;;;;2.23;1.37;;;;;;;;;;523078;28;1095;-58
2022/11/04 00:02:59;;;;;;;2.63;1.50;;;;;;;;;;522359;28;1144;-58
2022/11/04 00:03:14;;;;;;;2.78;1.50;;;;;;;;;;520104;28;1324;-58
2022/11/04 00:03:29;;;;;;;3.00;1.30;;;;;;;;;;519380;28;1166;-58
2022/11/04 00:03:45;;;;;;;2.67;1.27;;;;;;;;;;519382;28;1253;-58
2022/11/04 00:04:00;;;;;;;2.13;1.30;;;;;;;;;;519845;28;1226;-58
2022/11/04 00:04:17;;;;;;;2.03;1.30;;;;;;;;;;520618;28;1121;-58
2022/11/04 00:04:32;;;;;;;2.17;1.35;;;;;;;;;;518322;28;1090;-58
2022/11/04 00:04:48;;;;;;;1.93;1.30;;;;;;;;;;522958;28;1298;-57
2022/11/04 00:05:03;;;;;;;2.50;1.30;;;;;;;;;;522899;28;1157;-58
2022/11/04 00:05:18;;;;;;;3.27;1.57;;;;;;;;;;523227;28;1101;-57
2022/11/04 00:05:34;;;;;;;2.90;1.50;;;;;;;;;;522776;28;1189;-58
2022/11/04 00:05:49;;;;;;;2.45;1.33;;;;;;;;;;522887;28;1273;-57
2022/11/04 00:06:05;;;;;;;3.13;1.43;;;;;;;;;;522049;28;1214;-58
2022/11/04 00:06:20;;;;;;;2.47;1.27;;;;;;;;;;521984;28;1193;-58
2022/11/04 00:06:37;;;;;;;1.73;1.20;;;;;;;;;;522042;28;1460;-58
2022/11/04 00:06:53;;;;;;;2.67;1.42;;;;;;;;;;520943;28;1109;-58
2022/11/04 00:08:22;;;;;;;2.50;1.50;;;;;;;;;;518984;28;1384;-58
2022/11/04 00:08:24;;;;;;;2.00;1.20;;;;;;;;;;523778;28;1136;-58
2022/11/04 00:08:39;;;;;;;3.33;1.40;;;;;;;;;;524314;28;1426;-57
2022/11/04 00:08:56;;;;;;;3.67;1.40;;;;;;;;;;520463;28;1162;-58
2022/11/04 00:09:18;;;;;;;2.17;1.35;;;;;;;;;;519893;28;1587;-58
2022/11/04 00:09:33;;;;;;;2.22;1.27;;;;;;;;;;519736;28;1103;-57
2022/11/04 00:09:49;;;;;;;2.07;1.13;;;;;;;;;;520836;28;1169;-58
2022/11/04 00:10:04;;;;;;;1.90;1.20;;;;;;;;;;522457;28;1149;-57
2022/11/04 00:12:23;;;;;;;2.10;1.10;;;;;;;;;;520865;28;1233;-57
2022/11/04 00:12:38;;;;;;;2.70;1.30;;;;;;;;;;526285;27;1567;-58
2022/11/04 00:12:54;;;;;;;2.15;1.33;;;;;;;;;;522264;28;1511;-58
2022/11/04 00:13:09;;;;;;;1.77;1.30;;;;;;;;;;522362;28;1327;-58
2022/11/04 00:13:27;;;;;;;1.80;1.20;;;;;;;;;;520589;28;1436;-58
2022/11/04 00:13:43;;;;;;;1.88;1.20;;;;;;;;;;520211;28;1026;-58
2022/11/04 00:13:58;;;;;;;1.67;1.20;;;;;;;;;;518579;28;1579;-58
2022/11/04 00:14:14;;;;;;;1.30;1.20;;;;;;;;;;515145;28;1860;-58
2022/11/04 00:14:31;;;;;;;1.57;1.20;;;;;;;;;;516931;28;1176;-58
2022/11/04 00:14:46;;;;;;;2.10;1.05;;;;;;;;;;515621;28;1098;-58
2022/11/04 00:17:18;;;;;;;2.47;1.10;;;;;;;;;;521079;28;1201;-58
2022/11/04 00:17:20;;;;;;;1.50;1.00;;;;;;;;;;525402;28;1163;-58
2022/11/04 00:17:36;;;;;;;1.70;1.10;;;;;;;;;;524229;28;1109;-58
2022/11/04 00:17:51;;;;;;;1.80;1.10;;;;;;;;;;522787;28;1201;-58
2022/11/04 00:18:06;;;;;;;1.70;1.17;;;;;;;;;;523861;28;1193;-58
2022/11/04 00:18:21;;;;;;;1.40;1.20;;;;;;;;;;524031;28;989;-57
2022/11/04 00:18:36;;;;;;;1.58;1.30;;;;;;;;;;523766;28;1939;-58
2022/11/04 00:18:52;;;;;;;1.60;1.20;;;;;;;;;;521508;28;1197;-58
2022/11/04 00:19:07;;;;;;;2.00;1.15;;;;;;;;;;521573;28;1133;-58
2022/11/04 00:19:23;;;;;;;2.30;1.20;;;;;;;;;;518509;28;1406;-58
2022/11/04 00:28:53;;;;;;;2.35;1.40;;;;;;;;;;526131;27;1022;-58
2022/11/04 00:29:08;;;;;;;2.22;1.30;;;;;;;;;;527145;28;1100;-58
2022/11/04 00:29:23;;;;;;;2.47;1.30;;;;;;;;;;526634;27;1112;-58
2022/11/04 00:29:39;;;;;;;2.13;1.30;;;;;;;;;;524775;28;1108;-57
2022/11/04 00:29:54;;;;;;;2.67;1.27;;;;;;;;;;523497;28;1176;-58
2022/11/04 00:30:09;;;;;;;3.13;1.30;;;;;;;;;;523311;28;1271;-57
2022/11/04 00:30:25;;;;;;;2.20;1.20;;;;;;;;;;523277;28;1607;-57
2022/11/04 00:30:40;;;;;;;2.25;1.17;;;;;;;;;;520737;28;1227;-58
2022/11/04 00:30:57;;;;;;;1.97;1.20;;;;;;;;;;521616;28;1137;-58
2022/11/04 00:33:28;;;;;;;1.73;1.20;;;;;;;;;;525626;27;1028;-58
2022/11/04 00:33:44;;;;;;;2.13;1.35;;;;;;;;;;523914;27;1414;-58
2022/11/04 00:33:59;;;;;;;2.55;1.50;;;;;;;;;;523581;28;1384;-58
2022/11/04 00:34:14;;;;;;;2.10;1.40;;;;;;;;;;520028;28;1302;-58
2022/11/04 00:34:29;;;;;;;1.80;1.30;;;;;;;;;;519275;28;1191;-58
2022/11/04 00:34:45;;;;;;;2.57;1.30;;;;;;;;;;518233;28;1566;-58
2022/11/04 00:35:00;;;;;;;2.53;1.30;;;;;;;;;;515120;28;1517;-58
2022/11/04 00:35:15;;;;;;;1.47;1.30;;;;;;;;;;517008;28;1295;-58
2022/11/04 00:35:31;;;;;;;1.92;1.27;;;;;;;;;;517377;28;1309;-58
2022/11/04 00:35:50;;;;;;;3.57;1.30;;;;;;;;;;519445;28;1238;-58
2022/11/04 00:36:05;;;;;;;2.95;1.30;;;;;;;;;;518355;28;1240;-58
2022/11/04 00:36:22;;;;;;;2.20;1.30;;;;;;;;;;520619;28;1223;-58
2022/11/04 00:36:37;;;;;;;1.70;1.10;;;;;;;;;;522374;28;1230;-58
2022/11/04 00:36:53;;;;;;;1.80;1.10;;;;;;;;;;521793;28;1144;-58
2022/11/04 00:37:08;;;;;;;2.13;1.20;;;;;;;;;;522249;28;1178;-58
2022/11/04 00:37:23;;;;;;;2.57;1.30;;;;;;;;;;523700;28;1128;-58
2022/11/04 00:37:41;;;;;;;2.33;1.30;;;;;;;;;;527158;28;1204;-58
2022/11/04 00:37:56;;;;;;;1.70;1.25;;;;;;;;;;527098;27;1211;-58
2022/11/04 00:38:11;;;;;;;1.67;1.20;;;;;;;;;;523819;28;1425;-58
2022/11/04 00:38:26;;;;;;;1.80;1.33;;;;;;;;;;525826;27;1184;-58
2022/11/04 00:38:41;;;;;;;2.40;1.37;;;;;;;;;;524720;28;1912;-57
2022/11/04 00:38:57;;;;;;;2.45;1.30;;;;;;;;;;525423;28;1144;-57
2022/11/04 00:39:12;;;;;;;2.03;1.30;;;;;;;;;;525837;28;1188;-58
2022/11/04 00:39:28;;;;;;;2.33;1.30;;;;;;;;;;522255;28;1128;-58
2022/11/04 00:39:43;;;;;;;2.63;1.35;;;;;;;;;;523380;28;1133;-58
2022/11/04 00:39:59;;;;;;;2.53;1.38;;;;;;;;;;524284;28;1074;-58
2022/11/04 00:40:15;;;;;;;2.90;1.40;;;;;;;;;;525510;27;1944;-58
2022/11/04 00:40:30;;;;;;;2.42;1.33;;;;;;;;;;522607;27;1398;-58
2022/11/04 00:40:45;;;;;;;2.90;1.37;;;;;;;;;;524713;28;1694;-58
2022/11/04 00:41:01;;;;;;;3.10;1.45;;;;;;;;;;524970;28;1124;-58
2022/11/04 00:41:25;;;;;;;2.67;1.30;;;;;;;;;;526368;27;1140;-57
2022/11/04 00:41:40;;;;;;;2.28;1.30;;;;;;;;;;524896;28;1223;-57
2022/11/04 00:41:55;;;;;;;2.33;1.40;;;;;;;;;;525590;28;1078;-57
2022/11/04 00:42:11;;;;;;;3.05;1.50;;;;;;;;;;524398;28;1014;-58
2022/11/04 00:42:26;;;;;;;3.13;1.50;;;;;;;;;;525522;27;1234;-58
2022/11/04 00:42:44;;;;;;;2.55;1.40;;;;;;;;;;526598;28;1281;-58
2022/11/04 00:42:59;;;;;;;2.42;1.48;;;;;;;;;;525493;28;1056;-58
2022/11/04 00:43:15;;;;;;;2.05;1.38;;;;;;;;;;523355;28;1271;-58
2022/11/04 00:43:30;;;;;;;1.80;1.30;;;;;;;;;;521882;28;1244;-58
2022/11/04 00:43:45;;;;;;;2.50;1.13;;;;;;;;;;524162;28;1136;-57
2022/11/04 00:44:03;;;;;;;2.67;1.20;;;;;;;;;;523947;28;1265;-58
2022/11/04 00:44:18;;;;;;;2.15;1.30;;;;;;;;;;523801;28;1165;-58
2022/11/04 00:44:33;;;;;;;2.47;1.40;;;;;;;;;;522261;28;1120;-58
2022/11/04 00:44:49;;;;;;;3.77;1.30;;;;;;;;;;524356;28;1191;-57
2022/11/04 00:45:05;;;;;;;3.40;1.20;;;;;;;;;;525072;28;1222;-58
2022/11/04 00:45:21;;;;;;;1.85;1.20;;;;;;;;;;523046;28;1786;-58
2022/11/04 00:45:36;;;;;;;2.30;1.13;;;;;;;;;;521091;28;1530;-58
2022/11/04 00:45:52;;;;;;;2.25;1.20;;;;;;;;;;520596;28;1798;-58
2022/11/04 00:46:07;;;;;;;1.63;1.30;;;;;;;;;;521148;28;1294;-58
2022/11/04 00:46:22;;;;;;;2.47;1.33;;;;;;;;;;520904;28;1235;-57
2022/11/04 00:46:37;;;;;;;2.72;1.40;;;;;;;;;;522692;28;1207;-58
2022/11/04 00:46:53;;;;;;;2.10;1.40;;;;;;;;;;520091;28;1232;-58
2022/11/04 00:47:08;;;;;;;2.60;1.23;;;;;;;;;;521793;28;1077;-57
2022/11/04 00:47:24;;;;;;;2.55;1.20;;;;;;;;;;519739;28;1200;-58
2022/11/04 00:47:39;;;;;;;1.97;1.20;;;;;;;;;;524548;28;1109;-58
2022/11/04 00:47:54;;;;;;;1.90;1.20;;;;;;;;;;523156;28;1164;-58
2022/11/04 00:48:10;;;;;;;2.75;1.20;;;;;;;;;;522370;28;1179;-58
2022/11/04 00:48:25;;;;;;;3.17;1.20;;;;;;;;;;526239;28;1109;-59
2022/11/04 00:48:40;;;;;;;2.67;1.23;;;;;;;;;;523394;28;1031;-58
2022/11/04 00:48:56;;;;;;;2.38;1.20;;;;;;;;;;526608;28;1269;-58
2022/11/04 00:49:12;;;;;;;2.50;1.37;;;;;;;;;;525459;28;1052;-58
2022/11/04 00:49:27;;;;;;;2.53;1.50;;;;;;;;;;524462;28;1630;-58
2022/11/04 00:49:42;;;;;;;2.63;1.42;;;;;;;;;;524438;28;1116;-58
2022/11/04 00:49:58;;;;;;;3.53;1.50;;;;;;;;;;526956;27;1123;-58
2022/11/04 00:50:13;;;;;;;3.50;1.50;;;;;;;;;;525597;28;1364;-58
2022/11/04 00:50:28;;;;;;;3.07;1.40;;;;;;;;;;523267;28;1396;-57
2022/11/04 00:50:43;;;;;;;2.78;1.20;;;;;;;;;;523759;28;1212;-58
2022/11/04 00:50:59;;;;;;;2.63;1.37;;;;;;;;;;523524;28;954;-58
2022/11/04 00:51:14;;;;;;;3.00;1.50;;;;;;;;;;522537;28;1286;-58
2022/11/04 00:51:29;;;;;;;2.55;1.40;;;;;;;;;;519507;28;975;-58
2022/11/04 00:51:44;;;;;;;2.50;1.40;;;;;;;;;;519029;28;1254;-57
2022/11/04 00:52:00;;;;;;;2.40;1.30;;;;;;;;;;519138;28;1124;-58
2022/11/04 00:52:15;;;;;;;2.00;1.23;;;;;;;;;;523037;28;1294;-58
2022/11/04 00:52:30;;;;;;;2.30;1.30;;;;;;;;;;524502;28;1152;-58
2022/11/04 00:52:46;;;;;;;2.80;1.27;;;;;;;;;;524483;28;1129;-58
2022/11/04 00:53:02;;;;;;;2.87;1.10;;;;;;;;;;522302;28;1129;-57
2022/11/04 00:53:17;;;;;;;2.10;1.20;;;;;;;;;;523005;28;1219;-58
2022/11/04 00:53:33;;;;;;;2.93;1.30;;;;;;;;;;524118;28;1254;-58
2022/11/04 00:53:49;;;;;;;3.20;1.23;;;;;;;;;;525392;28;1112;-58
2022/11/04 00:54:04;;;;;;;1.80;1.20;;;;;;;;;;524436;28;1085;-58
2022/11/04 00:54:20;;;;;;;1.92;1.40;;;;;;;;;;525188;28;1025;-58
2022/11/04 00:54:35;;;;;;;2.72;1.30;;;;;;;;;;525212;27;1243;-58
2022/11/04 00:54:50;;;;;;;2.80;1.20;;;;;;;;;;526870;27;1160;-58
2022/11/04 00:55:06;;;;;;;1.90;1.20;;;;;;;;;;526373;28;1166;-58
2022/11/04 00:55:21;;;;;;;2.20;1.20;;;;;;;;;;525735;28;1176;-58
2022/11/04 00:55:36;;;;;;;3.07;1.30;;;;;;;;;;522994;28;1505;-59
2022/11/04 00:55:52;;;;;;;2.67;1.17;;;;;;;;;;523613;28;955;-58
2022/11/04 00:56:07;;;;;;;1.58;1.00;;;;;;;;;;524799;28;1501;-58
2022/11/04 00:56:22;;;;;;;1.70;1.10;;;;;;;;;;523661;28;1057;-58
2022/11/04 00:56:38;;;;;;;2.50;1.20;;;;;;;;;;522989;28;1186;-58
2022/11/04 00:56:54;;;;;;;2.17;1.20;;;;;;;;;;521847;28;1196;-58
2022/11/04 00:57:10;;;;;;;1.85;1.20;;;;;;;;;;521309;28;1529;-58
2022/11/04 00:57:25;;;;;;;2.05;1.20;;;;;;;;;;520341;28;1266;-58
2022/11/04 00:57:41;;;;;;;2.53;1.30;;;;;;;;;;521488;28;1156;-57
2022/11/04 00:57:57;;;;;;;2.97;1.30;;;;;;;;;;521684;28;1204;-58
2022/11/04 00:58:12;;;;;;;2.30;1.20;;;;;;;;;;520868;28;1520;-58
2022/11/04 00:58:28;;;;;;;2.33;1.30;;;;;;;;;;521470;28;1156;-58
2022/11/04 00:58:43;;;;;;;2.25;1.33;;;;;;;;;;521115;28;1900;-58
2022/11/04 00:58:58;;;;;;;2.27;1.30;;;;;;;;;;521304;28;1003;-57
2022/11/04 00:59:14;;;;;;;2.43;1.30;;;;;;;;;;521632;28;1164;-58
2022/11/04 00:59:29;;;;;;;2.95;1.33;;;;;;;;;;525113;28;1120;-58
2022/11/04 00:59:44;;;;;;;2.93;1.30;;;;;;;;;;522688;28;1198;-57
2022/11/04 01:00:00;;;;;;;1.87;1.17;;;;;;;;;;523986;28;1029;-57
2022/11/04 01:00:15;;;;;;;2.20;1.20;;;;;;;;;;523446;28;1206;-58
2022/11/04 01:00:30;;;;;;;2.43;1.30;;;;;;;;;;521465;28;1277;-58
2022/11/04 01:00:46;;;;;;;2.30;1.35;;;;;;;;;;522007;28;1307;-58
2022/11/04 01:01:06;;;;;;;2.20;1.40;;;;;;;;;;521552;28;1294;-57
2022/11/04 01:01:22;;;;;;;2.08;1.25;;;;;;;;;;520081;28;1211;-59
2022/11/04 01:01:37;;;;;;;1.77;1.17;;;;;;;;;;515475;28;1610;-58
2022/11/04 01:01:52;;;;;;;2.00;1.20;;;;;;;;;;517163;28;1192;-58
2022/11/04 01:02:09;;;;;;;2.73;1.23;;;;;;;;;;518314;28;1142;-58
2022/11/04 01:02:24;;;;;;;2.47;1.20;;;;;;;;;;519238;28;1177;-58
2022/11/04 01:02:40;;;;;;;2.38;1.10;;;;;;;;;;519701;28;1165;-58
2022/11/04 01:02:55;;;;;;;2.50;1.10;;;;;;;;;;522509;28;1208;-57
2022/11/04 01:03:10;;;;;;;2.37;1.23;;;;;;;;;;523646;28;1176;-57
2022/11/04 01:03:26;;;;;;;2.10;1.30;;;;;;;;;;522441;28;1188;-58
2022/11/04 01:03:41;;;;;;;1.88;1.20;;;;;;;;;;521335;28;1195;-57
2022/11/04 01:03:56;;;;;;;2.13;1.17;;;;;;;;;;523261;28;1234;-58
2022/11/04 01:04:12;;;;;;;2.65;1.20;;;;;;;;;;524653;28;1164;-58
2022/11/04 01:04:28;;;;;;;2.57;1.20;;;;;;;;;;523686;28;1101;-58
2022/11/04 01:04:43;;;;;;;2.55;1.20;;;;;;;;;;525826;28;1137;-57
2022/11/04 01:04:58;;;;;;;2.63;1.10;;;;;;;;;;520187;28;1206;-58
2022/11/04 01:05:13;;;;;;;2.37;1.27;;;;;;;;;;521116;28;1397;-58
2022/11/04 01:05:29;;;;;;;1.90;1.30;;;;;;;;;;521649;28;1456;-58
2022/11/04 01:05:44;;;;;;;1.60;1.20;;;;;;;;;;523190;28;1393;-58
2022/11/04 01:05:59;;;;;;;2.50;1.23;;;;;;;;;;522327;28;1101;-58
2022/11/04 01:06:15;;;;;;;2.60;1.20;;;;;;;;;;524024;28;1397;-58
2022/11/04 01:06:31;;;;;;;1.75;1.20;;;;;;;;;;523708;28;1389;-58
2022/11/04 01:06:46;;;;;;;1.93;1.20;;;;;;;;;;522160;28;1374;-58
2022/11/04 01:07:02;;;;;;;2.00;1.20;;;;;;;;;;523119;28;1124;-58
2022/11/04 01:07:18;;;;;;;2.25;1.15;;;;;;;;;;523594;28;1473;-58
2022/11/04 01:07:33;;;;;;;2.70;1.20;;;;;;;;;;523575;28;1206;-58
2022/11/04 01:07:48;;;;;;;2.60;1.27;;;;;;;;;;521040;28;1333;-58
2022/11/04 01:08:04;;;;;;;2.35;1.27;;;;;;;;;;522612;28;1074;-58
2022/11/04 01:08:19;;;;;;;2.33;1.10;;;;;;;;;;521551;28;990;-58
2022/11/04 01:08:34;;;;;;;2.03;1.03;;;;;;;;;;520016;28;1223;-58
2022/11/04 01:09:02;;;;;;;1.52;1.10;;;;;;;;;;525220;28;1093;-58
2022/11/04 01:09:18;;;;;;;2.53;1.02;;;;;;;;;;523254;28;1137;-58
2022/11/04 01:09:33;;;;;;;1.70;0.98;;;;;;;;;;524314;28;1379;-58
2022/11/04 01:09:48;;;;;;;2.50;0.90;;;;;;;;;;525440;28;1286;-58
2022/11/04 01:10:05;;;;;;;2.50;0.90;;;;;;;;;;524227;28;1645;-58
2022/11/04 01:10:20;;;;;;;1.50;0.90;;;;;;;;;;525952;28;1196;-58
2022/11/04 01:10:43;;;;;;;1.58;0.90;;;;;;;;;;524882;28;1265;-58
2022/11/04 01:11:03;;;;;;;1.73;0.80;;;;;;;;;;524097;28;1455;-57
2022/11/04 01:11:19;;;;;;;2.70;1.00;;;;;;;;;;523371;28;1459;-57
2022/11/04 01:11:34;;;;;;;2.40;0.90;;;;;;;;;;523202;28;1278;-58
2022/11/04 01:11:49;;;;;;;2.37;0.87;;;;;;;;;;520881;28;2069;-57
2022/11/04 01:12:04;;;;;;;1.50;0.90;;;;;;;;;;522215;28;1105;-58
2022/11/04 01:12:20;;;;;;;2.00;0.90;;;;;;;;;;522199;28;1325;-57
2022/11/04 01:12:35;;;;;;;2.30;1.00;;;;;;;;;;522507;28;1101;-58
2022/11/04 01:12:51;;;;;;;2.73;1.10;;;;;;;;;;522072;28;1046;-58
2022/11/04 01:13:06;;;;;;;2.60;1.10;;;;;;;;;;522684;28;1231;-57
2022/11/04 01:13:22;;;;;;;2.23;0.97;;;;;;;;;;524253;28;1402;-57
2022/11/04 01:13:38;;;;;;;2.47;0.97;;;;;;;;;;524980;28;1759;-58
2022/11/04 01:13:54;;;;;;;1.60;0.95;;;;;;;;;;523047;28;1193;-58
2022/11/04 01:14:10;;;;;;;1.73;1.00;;;;;;;;;;523290;28;1556;-58
2022/11/04 01:14:25;;;;;;;1.63;0.90;;;;;;;;;;522984;28;1242;-58
2022/11/04 01:14:40;;;;;;;1.60;0.90;;;;;;;;;;520314;28;1134;-58
2022/11/04 01:14:56;;;;;;;1.47;0.90;;;;;;;;;;519522;28;1181;-58
2022/11/04 01:15:11;;;;;;;1.20;0.90;;;;;;;;;;515282;28;1391;-58
2022/11/04 01:15:26;;;;;;;1.30;1.00;;;;;;;;;;517193;28;1192;-58
2022/11/04 01:15:41;;;;;;;1.40;0.90;;;;;;;;;;518489;28;1173;-58
2022/11/04 01:15:58;;;;;;;1.50;0.83;;;;;;;;;;520746;28;1062;-58
2022/11/04 01:16:13;;;;;;;2.45;0.88;;;;;;;;;;520806;28;1635;-58
2022/11/04 01:16:29;;;;;;;2.10;0.83;;;;;;;;;;521332;28;1322;-58
2022/11/04 01:16:44;;;;;;;1.33;0.90;;;;;;;;;;522391;28;1144;-57
2022/11/04 01:17:00;;;;;;;1.30;0.90;;;;;;;;;;523438;28;1138;-58
2022/11/04 01:17:15;;;;;;;1.57;0.90;;;;;;;;;;525738;28;1244;-58
2022/11/04 01:17:31;;;;;;;1.67;0.90;;;;;;;;;;522474;28;1101;-57
2022/11/04 01:17:46;;;;;;;1.23;0.80;;;;;;;;;;522477;28;1292;-58
2022/11/04 01:18:02;;;;;;;0.90;0.80;;;;;;;;;;522561;28;1161;-57
2022/11/04 01:18:17;;;;;;;0.98;0.80;;;;;;;;;;523200;28;1137;-58
2022/11/04 01:18:32;;;;;;;0.93;0.70;;;;;;;;;;521665;28;1953;-58
2022/11/04 01:18:48;;;;;;;0.97;0.70;;;;;;;;;;520228;28;1519;-58
2022/11/04 01:19:04;;;;;;;1.15;0.70;;;;;;;;;;522326;28;1456;-58
2022/11/04 01:19:19;;;;;;;1.50;0.80;;;;;;;;;;521334;28;1179;-58
2022/11/04 01:19:35;;;;;;;2.17;0.80;;;;;;;;;;522280;28;1133;-57
2022/11/04 01:19:50;;;;;;;2.90;0.90;;;;;;;;;;521985;28;1379;-58
2022/11/04 01:20:06;;;;;;;2.17;0.90;;;;;;;;;;524355;28;990;-58
2022/11/04 01:20:21;;;;;;;1.50;0.80;;;;;;;;;;521831;28;1133;-58
2022/11/04 01:20:36;;;;;;;1.37;0.80;;;;;;;;;;523705;28;1215;-58
2022/11/04 01:20:52;;;;;;;1.50;0.80;;;;;;;;;;524286;28;1293;-57
2022/11/04 01:21:10;;;;;;;2.67;0.90;;;;;;;;;;524772;28;1031;-58
2022/11/04 01:21:25;;;;;;;2.00;0.80;;;;;;;;;;523752;28;1057;-58
2022/11/04 01:21:41;;;;;;;1.10;0.77;;;;;;;;;;521756;28;1646;-58
2022/11/04 01:21:56;;;;;;;1.00;0.70;;;;;;;;;;520496;28;1208;-58
2022/11/04 01:22:11;;;;;;;1.10;0.83;;;;;;;;;;520808;28;1179;-58
2022/11/04 01:22:26;;;;;;;1.17;0.87;;;;;;;;;;521719;28;1022;-58
2022/11/04 01:22:42;;;;;;;1.73;0.80;;;;;;;;;;521729;28;1082;-58
2022/11/04 01:22:57;;;;;;;2.10;0.80;;;;;;;;;;525598;28;1105;-58
2022/11/04 01:23:13;;;;;;;1.43;0.70;;;;;;;;;;522546;28;982;-58
2022/11/04 01:23:28;;;;;;;1.60;0.80;;;;;;;;;;523027;28;1488;-59
2022/11/04 01:23:44;;;;;;;2.10;0.90;;;;;;;;;;524451;28;1192;-59
2022/11/04 01:24:00;;;;;;;1.80;0.80;;;;;;;;;;525486;28;985;-59
2022/11/04 01:24:15;;;;;;;1.60;0.70;;;;;;;;;;528926;27;1270;-58
2022/11/04 01:24:30;;;;;;;1.07;0.60;;;;;;;;;;528364;27;965;-59
2022/11/04 01:24:45;;;;;;;1.07;0.70;;;;;;;;;;528336;27;1144;-58
2022/11/04 01:25:01;;;;;;;1.40;0.80;;;;;;;;;;527653;27;1062;-58
2022/11/04 01:25:17;;;;;;;1.38;0.70;;;;;;;;;;529449;27;1115;-58
2022/11/04 01:25:32;;;;;;;1.30;0.60;;;;;;;;;;527384;27;1127;-58
2022/11/04 01:25:47;;;;;;;1.20;0.70;;;;;;;;;;527017;28;1237;-58
2022/11/04 01:26:07;;;;;;;1.33;0.80;;;;;;;;;;525532;28;1104;-59
2022/11/04 01:26:24;;;;;;;2.83;0.75;;;;;;;;;;525687;28;1234;-59
2022/11/04 01:26:39;;;;;;;2.35;0.70;;;;;;;;;;524101;28;1171;-58
2022/11/04 01:26:54;;;;;;;0.87;0.67;;;;;;;;;;525921;28;1313;-58
2022/11/04 01:27:10;;;;;;;1.30;0.80;;;;;;;;;;526439;28;1088;-58
2022/11/04 01:27:25;;;;;;;1.00;0.70;;;;;;;;;;525073;28;1211;-58
2022/11/04 01:27:40;;;;;;;1.37;0.70;;;;;;;;;;526492;27;1240;-58
2022/11/04 01:27:56;;;;;;;1.80;0.80;;;;;;;;;;525963;28;1422;-58
2022/11/04 01:28:11;;;;;;;2.17;0.70;;;;;;;;;;525178;28;1117;-58
2022/11/04 01:28:26;;;;;;;2.93;0.70;;;;;;;;;;524717;28;1588;-59
2022/11/04 01:28:42;;;;;;;3.20;0.80;;;;;;;;;;524309;28;1257;-58
2022/11/04 01:28:57;;;;;;;2.45;0.75;;;;;;;;;;521563;28;1709;-59
2022/11/04 01:29:13;;;;;;;1.90;0.80;;;;;;;;;;522446;28;1197;-58
2022/11/04 01:29:28;;;;;;;1.70;0.80;;;;;;;;;;521801;28;1174;-58
2022/11/04 01:29:43;;;;;;;1.30;0.80;;;;;;;;;;523159;28;1212;-58
2022/11/04 01:29:58;;;;;;;1.70;0.80;;;;;;;;;;518955;28;1522;-58
2022/11/04 01:30:14;;;;;;;1.42;0.68;;;;;;;;;;515477;28;1450;-58
2022/11/04 01:30:29;;;;;;;0.77;0.57;;;;;;;;;;521423;28;1229;-58
2022/11/04 01:30:44;;;;;;;1.07;0.60;;;;;;;;;;523292;28;1208;-58
2022/11/04 01:31:05;;;;;;;1.20;0.80;;;;;;;;;;520182;28;1362;-58
2022/11/04 01:31:26;;;;;;;1.70;0.80;;;;;;;;;;520113;28;1180;-58
2022/11/04 01:31:41;;;;;;;1.80;0.70;;;;;;;;;;521828;28;1101;-59
2022/11/04 01:31:56;;;;;;;1.40;0.80;;;;;;;;;;522556;28;1081;-59
2022/11/04 01:32:11;;;;;;;1.57;0.87;;;;;;;;;;522651;28;1243;-58
2022/11/04 01:32:27;;;;;;;1.25;0.75;;;;;;;;;;524206;28;1209;-59
2022/11/04 01:32:42;;;;;;;2.00;0.70;;;;;;;;;;523809;28;1610;-58
2022/11/04 01:32:57;;;;;;;2.58;0.85;;;;;;;;;;523790;28;1157;-59
2022/11/04 01:33:13;;;;;;;1.50;0.80;;;;;;;;;;525525;28;1081;-58
2022/11/04 01:33:28;;;;;;;1.60;0.80;;;;;;;;;;525859;28;1413;-58
2022/11/04 01:33:43;;;;;;;1.83;0.80;;;;;;;;;;523231;28;1291;-58
2022/11/04 01:33:59;;;;;;;2.00;0.80;;;;;;;;;;520993;28;1384;-59
2022/11/04 01:34:14;;;;;;;1.60;0.70;;;;;;;;;;522581;28;1212;-58
2022/11/04 01:34:29;;;;;;;1.60;0.70;;;;;;;;;;523598;28;1167;-59
2022/11/04 01:34:45;;;;;;;1.90;0.80;;;;;;;;;;521678;28;1180;-58
2022/11/04 01:35:01;;;;;;;1.30;0.70;;;;;;;;;;521209;28;1023;-58
2022/11/04 01:35:16;;;;;;;1.00;0.70;;;;;;;;;;520779;28;1506;-58
2022/11/04 01:35:32;;;;;;;1.20;0.80;;;;;;;;;;521434;28;1044;-58
2022/11/04 01:35:47;;;;;;;1.90;0.90;;;;;;;;;;524596;28;1072;-58
2022/11/04 01:36:04;;;;;;;1.90;0.90;;;;;;;;;;524644;28;1109;-58
2022/11/04 01:36:20;;;;;;;0.98;0.88;;;;;;;;;;522391;28;1230;-59
2022/11/04 01:36:35;;;;;;;0.90;0.80;;;;;;;;;;519508;28;1935;-58
2022/11/04 01:36:51;;;;;;;1.07;0.70;;;;;;;;;;520088;28;1089;-58
2022/11/04 01:37:06;;;;;;;2.47;0.73;;;;;;;;;;520036;28;1093;-58
2022/11/04 01:37:21;;;;;;;2.85;0.70;;;;;;;;;;520994;28;1042;-58
2022/11/04 01:37:37;;;;;;;1.70;0.70;;;;;;;;;;523498;28;1101;-58
2022/11/04 01:37:52;;;;;;;1.23;0.70;;;;;;;;;;517563;28;1738;-58
2022/11/04 01:38:07;;;;;;;1.50;0.70;;;;;;;;;;521413;28;1273;-58
2022/11/04 01:38:22;;;;;;;1.67;0.90;;;;;;;;;;520143;28;1370;-58
2022/11/04 01:38:38;;;;;;;1.67;0.90;;;;;;;;;;519470;28;1910;-58
2022/11/04 01:38:55;;;;;;;2.28;0.80;;;;;;;;;;519028;28;1249;-58
2022/11/04 01:39:12;;;;;;;1.92;0.85;;;;;;;;;;519668;28;1107;-58
2022/11/04 01:39:27;;;;;;;1.35;0.80;;;;;;;;;;519804;28;1464;-58
2022/11/04 01:39:43;;;;;;;1.08;0.70;;;;;;;;;;521206;28;1039;-58
2022/11/04 01:39:58;;;;;;;1.60;0.80;;;;;;;;;;520521;28;1110;-59
2022/11/04 01:40:13;;;;;;;1.50;0.80;;;;;;;;;;522082;28;1109;-59
2022/11/04 01:40:29;;;;;;;1.77;0.80;;;;;;;;;;521900;28;1105;-58
2022/11/04 01:40:44;;;;;;;1.97;0.80;;;;;;;;;;523517;28;1200;-58
2022/11/04 01:41:00;;;;;;;1.38;0.70;;;;;;;;;;523862;28;1157;-58
2022/11/04 01:41:25;;;;;;;1.95;0.80;;;;;;;;;;523668;28;1204;-59
2022/11/04 01:41:40;;;;;;;1.15;0.70;;;;;;;;;;522557;28;1271;-59
2022/11/04 01:41:55;;;;;;;1.00;0.70;;;;;;;;;;521484;28;1252;-58
2022/11/04 01:42:13;;;;;;;1.20;0.70;;;;;;;;;;522091;28;1223;-58
2022/11/04 01:42:28;;;;;;;1.60;0.70;;;;;;;;;;523715;28;1231;-58
2022/11/04 01:42:43;;;;;;;1.77;0.70;;;;;;;;;;522012;28;1121;-58
2022/11/04 01:42:59;;;;;;;1.57;0.70;;;;;;;;;;520870;28;1172;-58
2022/11/04 01:43:17;;;;;;;1.43;0.70;;;;;;;;;;522700;28;1355;-58
2022/11/04 01:43:43;;;;;;;1.48;0.80;;;;;;;;;;522203;28;1517;-58
2022/11/04 01:44:23;;;;;;;1.60;0.80;;;;;;;;;;522944;28;1132;-58
2022/11/04 01:44:41;;;;;;;1.50;0.85;;;;;;;;;;522726;28;1109;-59
2022/11/04 01:44:59;;;;;;;1.42;0.70;;;;;;;;;;523735;28;1171;-58
2022/11/04 01:45:17;;;;;;;0.90;0.70;;;;;;;;;;524533;28;1278;-58
2022/11/04 01:45:33;;;;;;;1.50;0.80;;;;;;;;;;523071;28;1177;-58
2022/11/04 01:45:53;;;;;;;2.50;0.90;;;;;;;;;;524585;28;1113;-59
2022/11/04 01:46:16;;;;;;;1.40;0.80;;;;;;;;;;524404;28;1133;-59
2022/11/04 01:46:36;;;;;;;1.60;0.70;;;;;;;;;;523176;28;1172;-59
2022/11/04 01:46:52;;;;;;;2.40;0.80;;;;;;;;;;523330;28;1212;-58
2022/11/04 01:47:23;;;;;;;2.05;0.85;;;;;;;;;;522940;28;1337;-59
2022/11/04 01:47:43;;;;;;;2.13;0.80;;;;;;;;;;522846;28;1165;-58
2022/11/04 01:48:04;;;;;;;1.73;0.80;;;;;;;;;;522372;28;1448;-59
2022/11/04 01:48:29;;;;;;;1.23;0.80;;;;;;;;;;522797;28;1551;-58
2022/11/04 01:48:45;;;;;;;1.63;0.98;;;;;;;;;;522956;28;1081;-58
2022/11/04 01:49:22;;;;;;;1.87;0.90;;;;;;;;;;523710;28;1070;-59
2022/11/04 01:49:40;;;;;;;1.63;0.90;;;;;;;;;;522816;28;1116;-58
2022/11/04 01:50:01;;;;;;;1.52;0.90;;;;;;;;;;523408;28;1104;-58
2022/11/04 01:50:23;;;;;;;2.08;0.93;;;;;;;;;;521928;28;1369;-58
2022/11/04 01:50:39;;;;;;;1.70;0.80;;;;;;;;;;523175;28;1143;-58
2022/11/04 01:50:54;;;;;;;1.30;0.88;;;;;;;;;;521660;28;1188;-58
2022/11/04 01:51:10;;;;;;;1.07;0.80;;;;;;;;;;522320;28;1224;-58
2022/11/04 01:51:27;;;;;;;1.00;0.80;;;;;;;;;;520522;28;1220;-58
2022/11/04 01:51:45;;;;;;;1.48;0.90;;;;;;;;;;519780;28;1065;-59
2022/11/04 01:52:13;;;;;;;1.45;0.93;;;;;;;;;;522023;28;1244;-59
2022/11/04 01:52:36;;;;;;;2.00;0.85;;;;;;;;;;523452;28;1152;-58
2022/11/04 01:53:01;;;;;;;2.72;0.88;;;;;;;;;;525445;28;942;-58
2022/11/04 01:53:35;;;;;;;2.05;0.73;;;;;;;;;;521720;28;1270;-58
2022/11/04 01:53:53;;;;;;;2.40;0.90;;;;;;;;;;521383;28;1169;-58
2022/11/04 01:54:10;;;;;;;1.75;0.90;;;;;;;;;;523304;28;1379;-58
2022/11/04 01:54:26;;;;;;;1.35;0.88;;;;;;;;;;521429;28;1553;-58
2022/11/04 01:54:44;;;;;;;1.30;0.80;;;;;;;;;;519806;28;1169;-58
2022/11/04 01:55:06;;;;;;;1.40;0.90;;;;;;;;;;522287;28;1475;-58
2022/11/04 01:55:27;;;;;;;1.10;0.80;;;;;;;;;;520182;28;1177;-59
2022/11/04 01:55:50;;;;;;;1.42;0.90;;;;;;;;;;521054;28;1129;-59
2022/11/04 01:56:10;;;;;;;1.77;0.80;;;;;;;;;;521946;28;1110;-58
2022/11/04 01:56:27;;;;;;;2.97;0.80;;;;;;;;;;523077;28;1332;-58
2022/11/04 01:56:44;;;;;;;1.60;0.80;;;;;;;;;;524600;28;1007;-58
2022/11/04 01:57:02;;;;;;;1.17;0.82;;;;;;;;;;524954;28;1077;-59
2022/11/04 01:57:25;;;;;;;1.30;0.90;;;;;;;;;;524624;28;1379;-58